Portada
METAR-TAF:

METAR-TAF

Aeroports :

Yap, Micronèsia

latitud: 09-29N, longitud: 138-05E, altitud: 28 m

Observació

L'informe es va fer fa 43 minuts, a les 12:52 UTC
Vent 3 kt amb direcció variable
Temperatura 28°C
Humitat 84%
Pressió 1010 hPa
Visibilitat: 19.3 km
Escasses núvols a una alçada de 1600 ft
Núvols disperses a una alçada de 30000 ft

METAR: PTYA 141252Z VRB03KT 12SM FEW016 SCT300 28/25 A2982 RMK SLP098 T02770248

Hora: 23:35 (13:35 UTC)

Pronòstic

L'informe es va fer fa 2 hores i 12 minuts, a les 11:23 UTC
Pronòstic vàlid del 14 a les 12 UTC al 15 a les 12 UTC
Vent 11 kt del Est
Visibilitat: 10 km
Núvols disperses a una alçada de 1600 ft
Núvols disperses a una alçada de 4000 ft
xàfecs en les proximitats

TAF: PTYA 141123Z 1412/1512 09011KT P6SM VCSH SCT016 SCT040

Observacions i pronòstics meteorològics de més de 4000 aeroports (METAR i TAF).

Les estacions disponibles són els punts grocs i vermells al mapa.

Posi el ratolí al punt desitjat per veure el nom de l'estació.

Feu clic per veure les observacions i els pronòstics meteorològics.

Per canviar el mapa: feu clic els botons verds amb una creu de color negre per apropar; al botó verd amb un guió per allunyar la imatge; o en les fletxes verdes per a mapes adjacents.


METAR-TAF: